createdAt,value
2019-02-27T00:00:22.133Z,20.27
2019-02-27T00:02:50.650Z,40.10
2019-02-27T00:05:19.122Z,28.40
2019-02-27T00:07:47.623Z,22.13
2019-02-27T00:10:16.092Z,27.33
2019-02-27T00:12:44.595Z,23.20
2019-02-27T00:15:13.060Z,24.10
2019-02-27T00:17:41.475Z,22.67
2019-02-27T00:20:09.972Z,19.10
2019-02-27T00:22:38.469Z,29.20
2019-02-27T00:25:06.879Z,24.57
2019-02-27T00:27:35.370Z,25.35
2019-02-27T00:30:05.754Z,17.80
2019-02-27T00:32:34.279Z,13.22
2019-02-27T00:35:06.458Z,14.55
2019-02-27T00:37:32.794Z,10.10
2019-02-27T00:40:05.402Z,15.30
2019-02-27T00:42:33.796Z,17.37
2019-02-27T00:45:01.342Z,25.45
2019-02-27T00:47:29.723Z,20.60
2019-02-27T00:49:58.642Z,13.38
2019-02-27T00:52:27.094Z,14.87
2019-02-27T00:54:55.509Z,14.85
2019-02-27T00:57:24.008Z,14.93
2019-02-27T00:59:52.627Z,17.98
2019-02-27T01:02:20.992Z,11.05
2019-02-27T01:04:49.551Z,10.23
2019-02-27T01:07:20.737Z,12.13
2019-02-27T01:09:48.154Z,13.55
2019-02-27T01:12:16.569Z,13.95
2019-02-27T01:14:45.055Z,15.35
2019-02-27T01:17:13.476Z,14.63
2019-02-27T01:19:42.914Z,10.03
2019-02-27T01:22:11.494Z,9.30
2019-02-27T01:24:39.943Z,12.93
2019-02-27T01:27:08.356Z,13.48
2019-02-27T01:29:36.850Z,17.67
2019-02-27T01:32:05.261Z,18.95
2019-02-27T01:34:33.744Z,17.42
2019-02-27T01:37:02.158Z,15.70
2019-02-27T01:39:30.636Z,9.95
2019-02-27T01:42:07.883Z,14.53
2019-02-27T01:44:35.838Z,14.07
2019-02-27T01:47:04.255Z,13.62
2019-02-27T01:49:32.626Z,13.30
2019-02-27T01:52:02.106Z,11.18
2019-02-27T01:54:30.802Z,7.55
2019-02-27T01:56:59.919Z,5.40
2019-02-27T01:59:29.255Z,2.65
2019-02-27T02:01:57.739Z,8.30
2019-02-27T02:04:26.163Z,6.85
2019-02-27T02:06:54.578Z,5.42
2019-02-27T02:09:34.120Z,6.50
2019-02-27T02:12:08.995Z,5.62
2019-02-27T02:15:03.151Z,7.45
2019-02-27T02:17:43.687Z,5.65
2019-02-27T02:20:33.404Z,4.97
2019-02-27T02:23:14.001Z,7.42
2019-02-27T02:26:01.126Z,10.40
2019-02-27T02:29:03.936Z,8.63
2019-02-27T02:31:41.223Z,11.48
2019-02-27T02:34:27.894Z,15.43
2019-02-27T02:37:28.366Z,18.15
2019-02-27T02:40:00.112Z,26.05
2019-02-27T02:43:06.695Z,20.68
2019-02-27T02:45:38.365Z,16.87
2019-02-27T02:48:21.613Z,13.05
2019-02-27T02:51:16.036Z,18.23
2019-02-27T02:54:00.331Z,12.07
2019-02-27T02:56:32.856Z,13.50
2019-02-27T02:59:33.188Z,11.50
2019-02-27T03:02:10.659Z,11.57
2019-02-27T03:04:47.968Z,27.95
2019-02-27T03:07:24.595Z,24.82
2019-02-27T03:10:27.847Z,31.52
2019-02-27T03:13:05.999Z,22.15
2019-02-27T03:15:39.023Z,13.13
2019-02-27T03:18:19.723Z,8.68
2019-02-27T03:21:03.126Z,8.50
2019-02-27T03:23:40.784Z,6.20
2019-02-27T03:26:51.673Z,9.33
2019-02-27T03:29:37.357Z,7.05
2019-02-27T03:32:21.184Z,5.53
2019-02-27T03:35:18.395Z,5.85
2019-02-27T03:37:52.618Z,7.25
2019-02-27T03:40:45.031Z,8.18
2019-02-27T03:43:19.724Z,10.60
2019-02-27T03:45:54.322Z,14.78
2019-02-27T03:48:43.891Z,17.02
2019-02-27T03:51:49.409Z,21.60
2019-02-27T03:54:26.975Z,9.60
2019-02-27T03:56:58.607Z,8.78
2019-02-27T03:59:30.247Z,8.48
2019-02-27T04:02:16.964Z,10.68
2019-02-27T04:05:07.151Z,5.92
2019-02-27T04:07:57.370Z,9.65
2019-02-27T04:10:30.937Z,22.85
2019-02-27T04:12:55.924Z,51.10
2019-02-27T04:15:24.405Z,17.37
2019-02-27T04:17:53.024Z,10.40
2019-02-27T04:20:21.709Z,8.98
2019-02-27T04:22:50.119Z,5.90
2019-02-27T04:25:18.574Z,9.75
2019-02-27T04:27:46.965Z,14.18
2019-02-27T04:30:16.742Z,13.80
2019-02-27T04:32:48.717Z,12.30
2019-02-27T04:35:15.305Z,10.00
2019-02-27T04:37:43.714Z,22.58
2019-02-27T04:40:12.146Z,22.90
2019-02-27T04:42:40.552Z,15.13
2019-02-27T04:45:12.363Z,28.20
2019-02-27T04:47:41.862Z,36.08
2019-02-27T04:50:11.276Z,30.00
2019-02-27T04:52:40.375Z,22.63
2019-02-27T04:55:08.795Z,20.17
2019-02-27T04:57:37.234Z,19.85
2019-02-27T05:00:08.421Z,23.38
2019-02-27T05:02:36.786Z,29.70
2019-02-27T05:05:08.573Z,37.95
2019-02-27T05:07:37.017Z,37.38
2019-02-27T05:10:08.031Z,51.73
2019-02-27T05:15:05.186Z,39.92
2019-02-27T05:17:33.587Z,39.98
2019-02-27T05:20:02.079Z,36.70
2019-02-27T05:22:30.496Z,41.48
2019-02-27T05:24:58.991Z,19.17
2019-02-27T05:27:27.452Z,21.05
2019-02-27T05:29:55.861Z,22.13
2019-02-27T05:32:27.908Z,31.20
2019-02-27T05:34:54.327Z,24.63
2019-02-27T05:37:22.741Z,18.80
2019-02-27T05:39:51.787Z,24.55
2019-02-27T05:42:20.246Z,23.55
2019-02-27T05:44:48.742Z,32.83
2019-02-27T05:47:17.162Z,26.48
2019-02-27T05:49:45.667Z,19.45
2019-02-27T05:52:14.421Z,38.98
2019-02-27T05:54:43.578Z,34.90
2019-02-27T05:57:11.951Z,22.30
2019-02-27T05:59:40.367Z,21.82
2019-02-27T06:02:10.893Z,28.57
2019-02-27T06:04:38.922Z,23.07
2019-02-27T06:07:07.331Z,22.93
2019-02-27T06:09:35.751Z,28.30
2019-02-27T06:12:06.973Z,17.42
2019-02-27T06:14:34.232Z,15.70
2019-02-27T06:17:02.823Z,24.23
2019-02-27T06:19:33.717Z,25.50
2019-02-27T06:22:01.311Z,25.67
2019-02-27T06:24:29.688Z,28.42
2019-02-27T06:26:58.075Z,25.17
2019-02-27T06:29:28.281Z,22.65
2019-02-27T06:31:56.615Z,16.47
2019-02-27T06:34:25.433Z,17.62
2019-02-27T06:36:53.914Z,23.67
2019-02-27T06:39:22.332Z,21.80
2019-02-27T06:41:50.925Z,17.82
2019-02-27T06:44:19.342Z,19.23
2019-02-27T06:46:47.788Z,34.48
2019-02-27T06:49:18.312Z,24.75
2019-02-27T06:51:46.273Z,24.60
2019-02-27T06:54:18.177Z,20.20
2019-02-27T06:56:44.889Z,12.10
2019-02-27T06:59:13.298Z,19.65
2019-02-27T07:01:41.780Z,15.32
2019-02-27T07:04:10.198Z,17.30
2019-02-27T07:06:38.682Z,12.47
2019-02-27T07:09:11.407Z,19.07
2019-02-27T07:11:37.222Z,19.03
2019-02-27T07:14:05.696Z,14.43
2019-02-27T07:16:34.179Z,17.87
2019-02-27T07:19:02.601Z,15.25
2019-02-27T07:21:32.810Z,10.80
2019-02-27T07:24:01.158Z,20.35
2019-02-27T07:26:29.603Z,19.92
2019-02-27T07:28:57.987Z,19.35
2019-02-27T07:31:26.413Z,19.80
2019-02-27T07:33:54.898Z,19.15
2019-02-27T07:36:23.318Z,23.10
2019-02-27T07:38:54.422Z,22.25
2019-02-27T07:41:21.882Z,20.52
2019-02-27T07:43:50.339Z,19.55
2019-02-27T07:46:22.208Z,17.52
2019-02-27T07:48:49.066Z,13.53
2019-02-27T07:51:17.482Z,17.45
2019-02-27T07:53:46.181Z,18.05
2019-02-27T07:56:14.602Z,18.23
2019-02-27T07:58:43.102Z,26.48
2019-02-27T08:01:11.522Z,15.90
2019-02-27T08:03:39.999Z,17.17
2019-02-27T08:06:08.417Z,22.60
2019-02-27T08:08:36.913Z,18.90
2019-02-27T08:11:05.335Z,18.32
2019-02-27T08:13:33.819Z,19.70
2019-02-27T08:16:02.405Z,20.77
2019-02-27T08:18:36.701Z,21.25
2019-02-27T08:21:00.975Z,14.75
2019-02-27T08:23:29.386Z,19.05
2019-02-27T08:25:57.829Z,24.98
2019-02-27T08:28:26.309Z,24.70
2019-02-27T08:30:54.681Z,21.17
2019-02-27T08:33:23.059Z,15.25
2019-02-27T08:35:51.478Z,15.90
2019-02-27T08:38:19.967Z,17.92
2019-02-27T08:40:48.371Z,14.93
2019-02-27T08:43:16.879Z,19.70
2019-02-27T08:45:45.359Z,27.15
2019-02-27T08:48:16.904Z,26.27
2019-02-27T08:50:43.954Z,16.20
2019-02-27T08:53:12.363Z,31.65
2019-02-27T08:55:40.850Z,25.50
2019-02-27T08:58:09.266Z,28.73
2019-02-27T09:00:37.918Z,20.50
2019-02-27T09:03:06.546Z,28.05
2019-02-27T09:05:35.580Z,22.00
2019-02-27T09:08:04.010Z,30.82
2019-02-27T09:10:32.516Z,38.60
2019-02-27T09:13:05.282Z,45.05
2019-02-27T09:15:31.136Z,32.17
2019-02-27T09:18:01.742Z,32.93
2019-02-27T09:20:29.719Z,43.43
2019-02-27T09:22:58.152Z,85.20
2019-02-27T09:25:26.623Z,37.48
2019-02-27T09:27:55.051Z,36.53
2019-02-27T09:30:29.330Z,43.65
2019-02-27T09:32:56.482Z,30.10
2019-02-27T09:35:24.970Z,38.15
2019-02-27T09:37:53.388Z,27.02
2019-02-27T09:40:26.942Z,26.57
2019-02-27T09:42:55.354Z,35.83
2019-02-27T09:45:29.636Z,67.35
2019-02-27T09:47:59.890Z,24.87
2019-02-27T09:50:39.807Z,19.17
2019-02-27T09:53:08.223Z,23.62
2019-02-27T09:55:36.699Z,32.83
2019-02-27T09:58:10.114Z,34.35
2019-02-27T10:00:38.222Z,24.63
2019-02-27T10:03:06.741Z,19.65
2019-02-27T10:05:36.745Z,17.15
2019-02-27T10:08:07.597Z,13.98
2019-02-27T10:13:07.884Z,17.40
2019-02-27T10:15:36.899Z,19.02
2019-02-27T10:18:05.464Z,12.85
2019-02-27T10:20:36.997Z,17.57
2019-02-27T10:23:30.429Z,18.23
2019-02-27T10:25:56.534Z,19.35
2019-02-27T10:28:24.993Z,17.82
2019-02-27T10:30:53.420Z,16.57
2019-02-27T10:33:21.977Z,15.18
2019-02-27T10:35:50.403Z,13.13
2019-02-27T10:38:18.890Z,17.05
2019-02-27T10:40:47.319Z,17.80
2019-02-27T10:43:15.809Z,32.75
2019-02-27T10:45:48.251Z,19.55
2019-02-27T10:48:14.431Z,17.97
2019-02-27T10:50:42.840Z,18.30
2019-02-27T10:53:11.341Z,26.27
2019-02-27T10:55:39.738Z,21.23
2019-02-27T10:58:12.818Z,15.00
2019-02-27T11:00:38.226Z,16.73
2019-02-27T11:03:06.718Z,15.68
2019-02-27T11:05:37.374Z,16.05
2019-02-27T11:08:05.876Z,12.90
2019-02-27T11:10:34.449Z,15.08
2019-02-27T11:13:05.965Z,14.25
2019-02-27T11:15:33.016Z,16.65
2019-02-27T11:18:05.386Z,28.12
2019-02-27T11:20:31.654Z,10.08
2019-02-27T11:23:00.072Z,16.25
2019-02-27T11:25:29.847Z,18.27
2019-02-27T11:27:58.263Z,13.13
2019-02-27T11:30:30.022Z,15.38
2019-02-27T11:32:58.464Z,26.10
2019-02-27T11:35:26.916Z,25.92
2019-02-27T11:37:55.339Z,18.57
2019-02-27T11:40:24.968Z,15.00
2019-02-27T11:42:53.389Z,22.48
2019-02-27T11:45:24.639Z,19.32
2019-02-27T11:47:52.014Z,13.70
2019-02-27T11:53:01.904Z,11.80
2019-02-27T11:55:26.933Z,10.58
2019-02-27T11:57:55.372Z,14.13
2019-02-27T12:00:28.274Z,11.33
2019-02-27T12:02:57.225Z,13.78
2019-02-27T12:05:30.822Z,20.37
2019-02-27T12:10:33.384Z,14.47
2019-02-27T12:13:01.863Z,16.02
2019-02-27T12:15:30.286Z,33.73
2019-02-27T12:18:00.593Z,26.52
2019-02-27T12:20:28.878Z,29.80
2019-02-27T12:22:57.291Z,44.88
2019-02-27T12:25:28.936Z,29.25
2019-02-27T12:27:56.990Z,20.12
2019-02-27T12:30:29.903Z,38.30
2019-02-27T12:32:58.327Z,19.87
2019-02-27T12:35:29.179Z,23.00
2019-02-27T12:37:57.597Z,26.33
2019-02-27T12:40:26.096Z,23.40
2019-02-27T12:42:54.516Z,31.17
2019-02-27T12:45:26.490Z,25.77
2019-02-27T12:47:55.147Z,22.07
2019-02-27T12:50:26.568Z,18.35
2019-02-27T12:52:55.227Z,30.95
2019-02-27T12:55:23.710Z,21.48
2019-02-27T12:57:52.992Z,19.62
2019-02-27T13:00:32.923Z,21.75
2019-02-27T13:03:01.349Z,57.73
2019-02-27T13:05:29.771Z,23.60
2019-02-27T13:07:58.251Z,17.55
2019-02-27T13:10:27.400Z,25.17
2019-02-27T13:12:55.830Z,18.82
2019-02-27T13:15:25.641Z,18.20
2019-02-27T13:20:43.019Z,32.25
2019-02-27T13:23:10.620Z,34.67
2019-02-27T13:25:39.034Z,26.45
2019-02-27T13:28:07.538Z,22.90
2019-02-27T13:30:35.952Z,18.27
2019-02-27T13:33:04.428Z,21.77
2019-02-27T13:35:32.847Z,30.70
2019-02-27T13:38:01.330Z,31.07
2019-02-27T13:40:35.165Z,30.62
2019-02-27T13:43:01.295Z,29.42
2019-02-27T13:45:31.969Z,25.82
2019-02-27T13:48:04.909Z,26.12
2019-02-27T13:50:30.585Z,47.93
2019-02-27T13:52:59.084Z,40.03
2019-02-27T13:55:27.497Z,46.48
2019-02-27T13:57:58.855Z,33.23
2019-02-27T14:00:34.337Z,22.50
2019-02-27T14:03:02.839Z,34.05
2019-02-27T14:05:35.155Z,32.93
2019-02-27T14:08:01.329Z,23.70
2019-02-27T14:10:30.877Z,22.45
2019-02-27T14:12:59.291Z,30.32
2019-02-27T14:15:28.206Z,23.95
2019-02-27T14:17:56.972Z,27.93
2019-02-27T14:20:27.070Z,27.52
2019-02-27T14:22:55.601Z,24.63
2019-02-27T14:25:32.630Z,32.08
2019-02-27T14:27:58.912Z,33.73
2019-02-27T14:30:36.661Z,39.85
2019-02-27T14:33:05.162Z,35.25
2019-02-27T14:35:36.338Z,32.83
2019-02-27T14:38:03.706Z,49.97
2019-02-27T14:40:32.131Z,42.40
2019-02-27T14:43:00.551Z,37.40
2019-02-27T14:45:28.976Z,43.63
2019-02-27T14:47:59.065Z,46.70
2019-02-27T14:50:27.615Z,38.15
2019-02-27T14:52:56.032Z,40.10
2019-02-27T14:55:24.452Z,48.35
2019-02-27T14:57:53.940Z,43.80
2019-02-27T15:00:27.747Z,40.03
2019-02-27T15:02:56.559Z,42.08
2019-02-27T15:05:25.135Z,51.00
2019-02-27T15:07:54.803Z,43.05
2019-02-27T15:10:24.082Z,36.40
2019-02-27T15:12:54.987Z,42.48
2019-02-27T15:15:24.696Z,38.67
2019-02-27T15:17:53.193Z,47.50
2019-02-27T15:20:23.652Z,49.15
2019-02-27T15:22:52.802Z,45.90
2019-02-27T15:25:22.092Z,43.63
2019-02-27T15:27:50.587Z,49.18
2019-02-27T15:30:29.498Z,52.35
2019-02-27T15:32:57.988Z,42.33
2019-02-27T15:35:28.311Z,49.98
2019-02-27T15:37:56.515Z,50.97
2019-02-27T15:40:29.630Z,46.85
2019-02-27T15:42:57.368Z,47.62
2019-02-27T15:45:26.683Z,57.65
2019-02-27T15:47:55.210Z,53.85
2019-02-27T15:50:34.839Z,49.03
2019-02-27T15:53:03.252Z,64.15
2019-02-27T15:55:34.312Z,57.20
2019-02-27T15:58:01.896Z,61.55
2019-02-27T16:00:30.389Z,56.00
2019-02-27T16:02:59.075Z,66.25
2019-02-27T16:05:31.420Z,115.62
2019-02-27T16:07:57.642Z,64.58
2019-02-27T16:10:28.234Z,60.00
2019-02-27T16:12:59.817Z,63.50
2019-02-27T16:15:26.930Z,58.67
2019-02-27T16:17:55.354Z,79.40
2019-02-27T16:20:25.182Z,75.67
2019-02-27T16:22:53.590Z,89.30
2019-02-27T16:25:29.138Z,91.28
2019-02-27T16:27:57.568Z,93.12
2019-02-27T16:30:32.534Z,89.65
2019-02-27T16:33:00.336Z,92.45
2019-02-27T16:35:28.788Z,87.55
2019-02-27T16:37:57.942Z,117.80
2019-02-27T16:40:30.370Z,124.60
2019-02-27T16:42:58.859Z,108.92
2019-02-27T16:45:33.536Z,116.62
2019-02-27T16:48:01.078Z,115.08
2019-02-27T16:50:29.560Z,121.45
2019-02-27T16:52:58.064Z,128.47
2019-02-27T16:55:27.524Z,114.62
2019-02-27T16:57:57.508Z,111.75
2019-02-27T17:00:30.555Z,118.47
2019-02-27T17:02:58.970Z,117.03
2019-02-27T17:05:27.461Z,120.45
2019-02-27T17:08:00.397Z,115.72
2019-02-27T17:10:32.267Z,86.32
2019-02-27T17:13:00.848Z,123.15
2019-02-27T17:15:34.590Z,134.05
2019-02-27T17:17:59.453Z,157.43
2019-02-27T17:20:28.504Z,143.17
2019-02-27T17:22:57.001Z,147.37
2019-02-27T17:25:28.978Z,132.55
2019-02-27T17:27:55.563Z,140.30
2019-02-27T17:30:25.924Z,129.05
2019-02-27T17:32:54.340Z,85.45
2019-02-27T17:35:23.573Z,113.12
2019-02-27T17:37:52.709Z,124.07
2019-02-27T17:40:21.136Z,111.42
2019-02-27T17:45:27.650Z,111.30
2019-02-27T17:47:56.127Z,125.55
2019-02-27T17:50:24.543Z,142.68
2019-02-27T17:52:53.108Z,134.15
2019-02-27T17:55:21.540Z,111.97
2019-02-27T17:57:50.032Z,115.55
2019-02-27T18:00:24.751Z,119.20
2019-02-27T18:02:53.210Z,126.18
2019-02-27T18:05:22.284Z,127.05
2019-02-27T18:07:51.706Z,107.43
2019-02-27T18:10:20.223Z,91.22
2019-02-27T18:12:48.623Z,92.67
2019-02-27T18:15:39.626Z,88.97
2019-02-27T18:18:10.523Z,82.47
2019-02-27T18:20:38.198Z,72.03
2019-02-27T18:23:06.583Z,64.27
2019-02-27T18:25:35.062Z,61.50
2019-02-27T18:28:03.492Z,63.80
2019-02-27T18:30:31.982Z,54.53
2019-02-27T18:33:01.181Z,76.35
2019-02-27T18:35:29.927Z,64.82
2019-02-27T18:37:58.410Z,58.68
2019-02-27T18:40:26.898Z,59.95
2019-02-27T18:42:56.500Z,54.73
2019-02-27T18:45:28.149Z,58.73
2019-02-27T18:47:58.607Z,61.98
2019-02-27T18:50:26.703Z,54.97
2019-02-27T18:52:55.139Z,54.93
2019-02-27T18:55:29.274Z,67.50
2019-02-27T18:57:56.306Z,52.33
2019-02-27T19:00:29.069Z,59.35
2019-02-27T19:03:00.742Z,69.82
2019-02-27T19:05:29.225Z,60.67
2019-02-27T19:07:58.242Z,64.27
2019-02-27T19:10:26.720Z,66.40
2019-02-27T19:12:55.129Z,59.63
2019-02-27T19:15:25.094Z,83.27
2019-02-27T19:17:53.511Z,48.97
2019-02-27T19:20:25.286Z,68.60
2019-02-27T19:22:53.917Z,72.17
2019-02-27T19:25:22.412Z,68.57
2019-02-27T19:27:50.785Z,71.00
2019-02-27T19:30:19.534Z,80.92
2019-02-27T19:32:48.664Z,99.52
2019-02-27T19:35:21.289Z,109.63
2019-02-27T19:37:47.371Z,70.15
2019-02-27T19:40:18.657Z,89.87
2019-02-27T19:42:52.458Z,88.75
2019-02-27T19:45:20.875Z,116.95
2019-02-27T19:47:54.083Z,129.68
2019-02-27T19:50:19.500Z,106.37
2019-02-27T19:52:47.946Z,121.95
2019-02-27T19:55:16.358Z,137.57
2019-02-27T19:57:44.788Z,185.37
2019-02-27T20:00:19.124Z,161.73
2019-02-27T20:02:47.549Z,130.80
2019-02-27T20:05:16.400Z,250.07
2019-02-27T20:07:46.028Z,103.83
2019-02-27T20:10:16.666Z,284.77
2019-02-27T20:12:47.791Z,187.05
2019-02-27T20:15:25.192Z,90.87
2019-02-27T20:17:53.675Z,132.37
2019-02-27T20:20:22.648Z,121.70
2019-02-27T20:22:53.492Z,67.03
2019-02-27T20:25:29.240Z,70.62
2019-02-27T20:27:58.687Z,65.75
2019-02-27T20:30:27.445Z,89.00
2019-02-27T20:32:56.022Z,47.30
2019-02-27T20:35:24.444Z,59.45
2019-02-27T20:37:52.935Z,111.70
2019-02-27T20:40:21.348Z,69.25
2019-02-27T20:42:53.735Z,59.35
2019-02-27T20:45:21.232Z,69.03
2019-02-27T20:47:50.943Z,48.63
2019-02-27T20:50:34.942Z,70.25
2019-02-27T20:52:58.463Z,72.12
2019-02-27T20:55:26.955Z,62.25
2019-02-27T20:57:55.373Z,53.38
2019-02-27T21:00:24.007Z,76.75
2019-02-27T21:02:53.465Z,106.75
2019-02-27T21:05:23.647Z,66.15
2019-02-27T21:07:52.080Z,65.25
2019-02-27T21:10:29.599Z,56.18
2019-02-27T21:12:58.021Z,56.63
2019-02-27T21:15:29.304Z,94.03
2019-02-27T21:17:58.537Z,103.62
2019-02-27T21:20:27.338Z,93.65
2019-02-27T21:22:55.747Z,76.70
2019-02-27T21:25:24.305Z,88.50
2019-02-27T21:27:52.731Z,72.08
2019-02-27T21:30:25.463Z,83.12
2019-02-27T21:32:53.875Z,71.50
2019-02-27T21:35:22.290Z,55.58
2019-02-27T21:37:51.067Z,110.80
2019-02-27T21:40:19.971Z,54.48
2019-02-27T21:42:50.844Z,84.95
2019-02-27T21:45:19.651Z,47.30
2019-02-27T21:47:51.294Z,60.90
2019-02-27T21:50:19.599Z,79.70
2019-02-27T21:52:47.987Z,62.17
2019-02-27T21:55:16.471Z,52.45
2019-02-27T21:57:44.892Z,66.72
2019-02-27T22:00:24.751Z,77.53
2019-02-27T22:02:54.665Z,72.47
2019-02-27T22:05:23.175Z,59.20
2019-02-27T22:07:51.710Z,54.05
2019-02-27T22:10:20.650Z,50.55
2019-02-27T22:12:49.203Z,59.08
2019-02-27T22:15:22.875Z,46.53
2019-02-27T22:17:51.018Z,44.18
2019-02-27T22:20:25.726Z,76.67
2019-02-27T22:22:51.150Z,49.25
2019-02-27T22:25:19.567Z,54.73
2019-02-27T22:27:48.118Z,54.50
2019-02-27T22:30:23.137Z,70.80
2019-02-27T22:32:51.678Z,65.67
2019-02-27T22:35:20.103Z,67.05
2019-02-27T22:37:52.767Z,50.38
2019-02-27T22:40:27.195Z,55.12
2019-02-27T22:42:55.318Z,44.03
2019-02-27T22:45:23.713Z,51.00
2019-02-27T22:47:53.888Z,48.55
2019-02-27T22:50:22.231Z,46.42
2019-02-27T22:52:54.101Z,65.80
2019-02-27T22:55:21.027Z,50.03
2019-02-27T22:57:49.524Z,57.95
2019-02-27T23:00:31.815Z,61.15
2019-02-27T23:03:00.223Z,52.80
2019-02-27T23:05:28.639Z,55.92
2019-02-27T23:07:57.066Z,54.15
2019-02-27T23:10:28.147Z,56.73
2019-02-27T23:12:55.535Z,64.70
2019-02-27T23:15:24.798Z,68.78
2019-02-27T23:17:53.956Z,57.43
2019-02-27T23:20:22.371Z,71.07
2019-02-27T23:22:50.890Z,54.95
2019-02-27T23:25:19.306Z,54.70
2019-02-27T23:27:47.728Z,54.25
2019-02-27T23:30:16.218Z,58.60
2019-02-27T23:32:44.649Z,41.13
2019-02-27T23:35:16.008Z,43.75
2019-02-27T23:38:03.433Z,44.00
2019-02-27T23:40:32.538Z,46.90
2019-02-27T23:43:03.356Z,50.28
2019-02-27T23:45:31.094Z,37.28
2019-02-27T23:48:02.152Z,47.73
2019-02-27T23:50:29.656Z,48.08
2019-02-27T23:52:58.070Z,51.92
2019-02-27T23:55:26.557Z,50.52
2019-02-27T23:57:57.529Z,56.63
